Back to Top

Language: 

My Weather Underground Personal Weather Station Historical Data with Graphs...

Delerius Weather Station Historical Data
Daily Summary for June 18, 2017 Units:  Metric    English   Both
« Previous Day
Next Day »
Daily Weekly Monthly Yearly Custom
  High: Low: Average:
Temperature: 31.1 °C 13.1 °C 23.2 °C
Dew Point: 17.1 °C 11.3 °C 14.6 °C
Humidity: 91 % 38 % 62 %
Wind Speed: 12.9 km/h 0 km/h 3.7 km/h
Wind Gust: 24.1 km/h - -
Wind:- - West
Pressure: 1024.3 hPa 1020.2 hPa -
Precipitation: 0 mm    
Historical Graphs
 
 
Tabular Data for June 18, 2017
Time Temperature Dew Point Pressure Wind Wind Speed Wind Gust Humidity Rainfall Rate (Hourly) solar Conditions
00:04 18.3 °C 13.4 °C 1024.3 hPa WNW 4.8 km/h 9.7 km/h 73 % 0 mm 0 W/m2
00:09 18.3 °C 13.4 °C 1024.3 hPa WNW 4.8 km/h 9.7 km/h 73 % 0 mm 0 W/m2
00:14 18.2 °C 13.3 °C 1024.3 hPa WNW 3.2 km/h 8 km/h 73 % 0 mm 0 W/m2
00:19 18.1 °C 13.4 °C 1024.3 hPa WNW 3.2 km/h 8 km/h 74 % 0 mm 0 W/m2
00:24 18.1 °C 13.6 °C 1024.3 hPa Calm   6.4 km/h 75 % 0 mm 0 W/m2
00:30 17.9 °C 13.6 °C 1024.3 hPa Calm     76 % 0 mm 0 W/m2
00:35 17.8 °C 13.9 °C 1024.3 hPa Calm     78 % 0 mm 0 W/m2
00:40 17.6 °C 13.9 °C 1024.3 hPa Calm     79 % 0 mm 0 W/m2
00:45 17.3 °C 13.6 °C 1024.3 hPa Calm     79 % 0 mm 0 W/m2
00:50 17.1 °C 13.6 °C 1024.3 hPa Calm     80 % 0 mm 0 W/m2
00:55 16.9 °C 13.4 °C 1024.3 hPa Calm   1.6 km/h 80 % 0 mm 0 W/m2
01:00 16.8 °C 13.3 °C 1023.9 hPa Calm   6.4 km/h 80 % 0 mm 0 W/m2
01:05 16.7 °C 13.2 °C 1023.9 hPa WNW 1.6 km/h 6.4 km/h 80 % 0 mm 0 W/m2
01:10 16.6 °C 13.3 °C 1023.9 hPa Calm   4.8 km/h 81 % 0 mm 0 W/m2
01:15 16.4 °C 13.1 °C 1024.3 hPa Calm   1.6 km/h 81 % 0 mm 0 W/m2
01:20 16.3 °C 13.1 °C 1023.9 hPa Calm   3.2 km/h 81 % 0 mm 0 W/m2
01:25 16.2 °C 12.9 °C 1023.9 hPa Calm   3.2 km/h 81 % 0 mm 0 W/m2
01:30 16.2 °C 13.1 °C 1023.9 hPa Calm   3.2 km/h 82 % 0 mm 0 W/m2
01:35 16.1 °C 13 °C 1023.9 hPa Calm   4.8 km/h 82 % 0 mm 0 W/m2
01:40 16 °C 12.9 °C 1023.9 hPa Calm   4.8 km/h 82 % 0 mm 0 W/m2
01:45 15.8 °C 12.9 °C 1023.9 hPa Calm     83 % 0 mm 0 W/m2
01:50 15.7 °C 13 °C 1023.9 hPa Calm     84 % 0 mm 0 W/m2
01:55 15.6 °C 13.1 °C 1023.9 hPa Calm   1.6 km/h 85 % 0 mm 0 W/m2
02:00 15.6 °C 13.1 °C 1023.9 hPa WNW 1.6 km/h 3.2 km/h 85 % 0 mm 0 W/m2
02:05 15.4 °C 12.7 °C 1023.9 hPa WNW 1.6 km/h 3.2 km/h 84 % 0 mm 0 W/m2
02:10 15.4 °C 12.9 °C 1023.9 hPa Calm   3.2 km/h 85 % 0 mm 0 W/m2
02:15 15.3 °C 12.8 °C 1023.9 hPa Calm   3.2 km/h 85 % 0 mm 0 W/m2
02:20 15.2 °C 12.7 °C 1023.9 hPa Calm   3.2 km/h 85 % 0 mm 0 W/m2
02:25 15.1 °C 12.6 °C 1023.9 hPa Calm   3.2 km/h 85 % 0 mm 0 W/m2
02:30 14.9 °C 12.4 °C 1023.9 hPa Calm   3.2 km/h 85 % 0 mm 0 W/m2
02:35 14.9 °C 12.4 °C 1023.9 hPa Calm   3.2 km/h 85 % 0 mm 0 W/m2
02:36 14.9 °C 12.4 °C 1023.6 hPa Calm   3.2 km/h 85 % 0 mm 0 W/m2
02:41 14.8 °C 12.3 °C 1023.6 hPa Calm   3.2 km/h 85 % 0 mm 0 W/m2
02:46 14.8 °C 12.3 °C 1023.6 hPa Calm   3.2 km/h 85 % 0 mm 0 W/m2
02:51 14.7 °C 12.2 °C 1023.6 hPa Calm   3.2 km/h 85 % 0 mm 0 W/m2
02:56 14.7 °C 12.4 °C 1023.6 hPa Calm   3.2 km/h 86 % 0 mm 0 W/m2
03:01 14.7 °C 12.2 °C 1023.6 hPa Calm     85 % 0 mm 0 W/m2
03:06 14.6 °C 12.1 °C 1023.6 hPa Calm     85 % 0 mm 0 W/m2
03:11 14.5 °C 12 °C 1023.6 hPa Calm     85 % 0 mm 0 W/m2
03:16 14.4 °C 12.1 °C 1023.6 hPa Calm     86 % 0 mm 0 W/m2
03:21 14.3 °C 12 °C 1023.6 hPa Calm     86 % 0 mm 0 W/m2
03:26 14.3 °C 12 °C 1023.6 hPa Calm     86 % 0 mm 0 W/m2
03:31 14.2 °C 11.9 °C 1023.6 hPa Calm     86 % 0 mm 0 W/m2
03:36 14.1 °C 11.9 °C 1023.6 hPa Calm     87 % 0 mm 0 W/m2
03:39 14.1 °C 11.9 °C 1023.2 hPa Calm     87 % 0 mm 0 W/m2
03:44 14.2 °C 12.1 °C 1023.6 hPa Calm     87 % 0 mm 0 W/m2
03:49 14.1 °C 11.9 °C 1023.2 hPa Calm     87 % 0 mm 0 W/m2
03:54 14.1 °C 11.9 °C 1023.2 hPa Calm     87 % 0 mm 0 W/m2
03:59 14 °C 11.9 °C 1023.6 hPa Calm     87 % 0 mm 0 W/m2
04:04 13.9 °C 11.8 °C 1023.2 hPa Calm     87 % 0 mm 0 W/m2
04:09 13.8 °C 11.7 °C 1023.2 hPa Calm     87 % 0 mm 0 W/m2
04:14 13.7 °C 11.6 °C 1023.2 hPa Calm     87 % 0 mm 0 W/m2
04:19 13.7 °C 11.6 °C 1023.6 hPa Calm     87 % 0 mm 0 W/m2
04:24 13.6 °C 11.7 °C 1023.6 hPa Calm     88 % 0 mm 0 W/m2
04:29 13.6 °C 11.5 °C 1023.6 hPa Calm     87 % 0 mm 0 W/m2
04:34 13.4 °C 11.3 °C 1023.6 hPa Calm     87 % 0 mm 0 W/m2
04:40 13.4 °C 11.4 °C 1023.6 hPa Calm     88 % 0 mm 5 W/m2
04:45 13.3 °C 11.3 °C 1023.6 hPa Calm     88 % 0 mm 7 W/m2
04:50 13.3 °C 11.3 °C 1023.6 hPa Calm     88 % 0 mm 7 W/m2
04:55 13.2 °C 11.3 °C 1023.6 hPa Calm     88 % 0 mm 9 W/m2
05:00 13.2 °C 11.4 °C 1023.6 hPa Calm     89 % 0 mm 11 W/m2
05:05 13.1 °C 11.3 °C 1023.6 hPa Calm     89 % 0 mm 12 W/m2
05:10 13.1 °C 11.3 °C 1023.6 hPa Calm     89 % 0 mm 12 W/m2
05:15 13.1 °C 11.3 °C 1023.6 hPa Calm     89 % 0 mm 14 W/m2
05:20 13.1 °C 11.5 °C 1023.6 hPa Calm     90 % 0 mm 16 W/m2
05:25 13.1 °C 11.5 °C 1023.6 hPa Calm     90 % 0 mm 18 W/m2
05:30 13.2 °C 11.6 °C 1023.6 hPa Calm     90 % 0 mm 18 W/m2
05:35 13.3 °C 11.9 °C 1023.6 hPa Calm     91 % 0 mm 19 W/m2
05:40 13.4 °C 11.8 °C 1023.6 hPa Calm     90 % 0 mm 21 W/m2
05:45 13.4 °C 11.8 °C 1023.6 hPa Calm     90 % 0 mm 21 W/m2
05:50 13.4 °C 11.8 °C 1023.6 hPa Calm     90 % 0 mm 23 W/m2
05:55 13.5 °C 11.9 °C 1023.6 hPa Calm     90 % 0 mm 95 W/m2
06:00 13.6 °C 12 °C 1023.6 hPa Calm     90 % 0 mm 111 W/m2
06:05 13.8 °C 12.2 °C 1023.6 hPa Calm     90 % 0 mm 118 W/m2
06:10 14.1 °C 12.5 °C 1023.6 hPa Calm     90 % 0 mm 65 W/m2
06:15 14.4 °C 12.6 °C 1023.9 hPa Calm     89 % 0 mm 35 W/m2
06:20 14.6 °C 12.6 °C 1023.9 hPa Calm     88 % 0 mm 46 W/m2
06:25 14.7 °C 12.6 °C 1023.9 hPa Calm     87 % 0 mm 51 W/m2
06:30 14.9 °C 12.8 °C 1023.9 hPa Calm     87 % 0 mm 39 W/m2
06:35 15.1 °C 12.9 °C 1023.6 hPa Calm     87 % 0 mm 32 W/m2
06:40 15.2 °C 12.9 °C 1023.9 hPa Calm     86 % 0 mm 32 W/m2
06:45 15.4 °C 12.9 °C 1023.9 hPa Calm     85 % 0 mm 33 W/m2
06:50 15.5 °C 12.8 °C 1023.9 hPa Calm     84 % 0 mm 33 W/m2
06:55 15.7 °C 13 °C 1023.6 hPa Calm     84 % 0 mm 33 W/m2
06:56 15.7 °C 13 °C 1023.6 hPa Calm     84 % 0 mm 35 W/m2
07:01 15.9 °C 13.2 °C 1023.9 hPa Calm     84 % 0 mm 35 W/m2
07:06 16.2 °C 13.3 °C 1023.6 hPa Calm     83 % 0 mm 37 W/m2
07:11 16.4 °C 13.5 °C 1023.6 hPa Calm     83 % 0 mm 83 W/m2
07:16 16.7 °C 13.6 °C 1023.6 hPa Calm     82 % 0 mm 278 W/m2
07:21 16.9 °C 13.8 °C 1023.6 hPa Calm     82 % 0 mm 297 W/m2
07:26 17.4 °C 14.1 °C 1023.6 hPa Calm     81 % 0 mm 311 W/m2
07:32 17.9 °C 14 °C 1023.6 hPa Calm     78 % 0 mm 323 W/m2
07:37 18.4 °C 14.1 °C 1023.6 hPa Calm     76 % 0 mm 338 W/m2
07:42 18.8 °C 14.3 °C 1023.6 hPa Calm     75 % 0 mm 352 W/m2
07:47 19.1 °C 14.3 °C 1023.6 hPa Calm     74 % 0 mm 366 W/m2
07:52 19.4 °C 14.2 °C 1023.6 hPa Calm     72 % 0 mm 380 W/m2
07:57 19.9 °C 14.5 °C 1023.6 hPa Calm     71 % 0 mm 392 W/m2
08:02 20.5 °C 14.6 °C 1023.6 hPa Calm     69 % 0 mm 408 W/m2
08:07 21.1 °C 14.5 °C 1023.6 hPa Calm     66 % 0 mm 422 W/m2
08:12 21.3 °C 14.4 °C 1023.6 hPa Calm     65 % 0 mm 432 W/m2
08:18 21.7 °C 14.6 °C 1023.6 hPa Calm     64 % 0 mm 448 W/m2
08:23 22.2 °C 14.8 °C 1023.6 hPa Calm     63 % 0 mm 464 W/m2
08:28 22.6 °C 14.7 °C 1023.6 hPa Calm     61 % 0 mm 475 W/m2
08:33 22.8 °C 14.6 °C 1023.6 hPa Calm     60 % 0 mm 489 W/m2
08:37 22.8 °C 14.4 °C 1023.2 hPa Calm     59 % 0 mm 499 W/m2
08:42 23.1 °C 14.4 °C 1023.2 hPa Calm     58 % 0 mm 513 W/m2
08:48 23.6 °C 14.3 °C 1023.2 hPa Calm     56 % 0 mm 526 W/m2
08:53 23.8 °C 14.8 °C 1023.2 hPa Calm     57 % 0 mm 540 W/m2
08:58 24.3 °C 14.7 °C 1023.2 hPa Calm     55 % 0 mm 552 W/m2
09:03 24.6 °C 14.9 °C 1023.2 hPa Calm     55 % 0 mm 568 W/m2
09:08 24.6 °C 14.9 °C 1023.2 hPa Calm     55 % 0 mm 575 W/m2
09:13 24.9 °C 15.2 °C 1023.2 hPa Calm     55 % 0 mm 587 W/m2
09:18 25.4 °C 15.1 °C 1023.2 hPa Calm     53 % 0 mm 599 W/m2
09:23 25.4 °C 14.8 °C 1023.2 hPa Calm     52 % 0 mm 612 W/m2
09:28 25.5 °C 15.2 °C 1023.2 hPa Calm     53 % 0 mm 617 W/m2
09:33 25.7 °C 15.7 °C 1023.2 hPa Calm   6.4 km/h 54 % 0 mm 629 W/m2
09:38 25.6 °C 15.6 °C 1023.2 hPa South 1.6 km/h 8 km/h 54 % 0 mm 640 W/m2
09:43 25.7 °C 15.7 °C 1023.2 hPa South 1.6 km/h 8 km/h 54 % 0 mm 654 W/m2
09:48 25.6 °C 15.6 °C 1023.2 hPa Calm   6.4 km/h 54 % 0 mm 661 W/m2
09:49 25.6 °C 15.6 °C 1022.9 hPa Calm   6.4 km/h 54 % 0 mm 664 W/m2
09:54 25.7 °C 15.7 °C 1022.9 hPa SSW 1.6 km/h 9.7 km/h 54 % 0 mm 673 W/m2
09:59 25.7 °C 15.7 °C 1022.9 hPa SW 3.2 km/h 9.7 km/h 54 % 0 mm 687 W/m2
10:04 25.8 °C 15.8 °C 1022.9 hPa WSW 3.2 km/h 9.7 km/h 54 % 0 mm 696 W/m2
10:09 25.7 °C 16 °C 1022.9 hPa WSW 3.2 km/h 9.7 km/h 55 % 0 mm 703 W/m2
10:14 25.8 °C 16.1 °C 1022.9 hPa WSW 3.2 km/h 9.7 km/h 55 % 0 mm 714 W/m2
10:19 26 °C 16.3 °C 1022.9 hPa SE 1.6 km/h 8 km/h 55 % 0 mm 722 W/m2
10:24 25.9 °C 15.9 °C 1022.6 hPa SSE 3.2 km/h 8 km/h 54 % 0 mm 729 W/m2
10:29 26 °C 15.7 °C 1022.6 hPa SW 4.8 km/h 11.3 km/h 53 % 0 mm 740 W/m2
10:34 25.9 °C 15.9 °C 1022.6 hPa SW 4.8 km/h 11.3 km/h 54 % 0 mm 749 W/m2
10:39 26.2 °C 16.2 °C 1022.6 hPa WSW 3.2 km/h 8 km/h 54 % 0 mm 759 W/m2
10:44 26.3 °C 16.2 °C 1022.6 hPa West 4.8 km/h 8 km/h 54 % 0 mm 765 W/m2
10:49 26.4 °C 16.1 °C 1022.6 hPa West 4.8 km/h 11.3 km/h 53 % 0 mm 773 W/m2
10:54 26.7 °C 16 °C 1022.6 hPa West 3.2 km/h 11.3 km/h 52 % 0 mm 780 W/m2
10:59 26.9 °C 16.2 °C 1022.6 hPa WNW 1.6 km/h 6.4 km/h 52 % 0 mm 786 W/m2
11:04 27.3 °C 16.3 °C 1022.6 hPa WNW 1.6 km/h 6.4 km/h 51 % 0 mm 796 W/m2
11:09 27.3 °C 16.3 °C 1022.6 hPa South 3.2 km/h 11.3 km/h 51 % 0 mm 802 W/m2
11:14 27.2 °C 16.5 °C 1022.6 hPa ESE 4.8 km/h 11.3 km/h 52 % 0 mm 809 W/m2
11:19 27.2 °C 16.5 °C 1022.6 hPa ENE 4.8 km/h 9.7 km/h 52 % 0 mm 814 W/m2
11:24 27.3 °C 16.3 °C 1022.6 hPa East 4.8 km/h 11.3 km/h 51 % 0 mm 819 W/m2
11:29 27.3 °C 16.6 °C 1022.2 hPa East 4.8 km/h 11.3 km/h 52 % 0 mm 824 W/m2
11:34 27.3 °C 16.3 °C 1022.2 hPa ENE 1.6 km/h 8 km/h 51 % 0 mm 835 W/m2
11:39 27.6 °C 16.6 °C 1022.2 hPa West 3.2 km/h 8 km/h 51 % 0 mm 837 W/m2
11:44 28.1 °C 16.4 °C 1022.2 hPa WNW 3.2 km/h 8 km/h 49 % 0 mm 840 W/m2
11:49 28.3 °C 16.2 °C 1022.2 hPa WNW 3.2 km/h 8 km/h 48 % 0 mm 851 W/m2
11:54 28.4 °C 16.3 °C 1022.2 hPa NNW 3.2 km/h 9.7 km/h 48 % 0 mm 858 W/m2
11:55 28.4 °C 16.7 °C 1022.2 hPa NNW 3.2 km/h 9.7 km/h 49 % 0 mm 858 W/m2
12:00 28.6 °C 16.2 °C 1022.2 hPa ENE 3.2 km/h 9.7 km/h 47 % 0 mm 867 W/m2
12:02 28.6 °C 16.5 °C 1022.2 hPa East 3.2 km/h 11.3 km/h 48 % 0 mm 872 W/m2
12:07 28.3 °C 16.2 °C 1022.2 hPa SSW 6.4 km/h 14.5 km/h 48 % 0 mm 877 W/m2
12:12 28.3 °C 16.6 °C 1021.9 hPa SW 8 km/h 14.5 km/h 49 % 0 mm 875 W/m2
12:17 28.6 °C 16.5 °C 1021.9 hPa West 4.8 km/h 11.3 km/h 48 % 0 mm 886 W/m2
12:22 28.6 °C 16.2 °C 1021.9 hPa SW 4.8 km/h 12.9 km/h 47 % 0 mm 893 W/m2
12:27 28.4 °C 16 °C 1021.9 hPa SW 6.4 km/h 12.9 km/h 47 % 0 mm 889 W/m2
12:32 28.5 °C 16.7 °C 1021.9 hPa NNE 4.8 km/h 12.9 km/h 49 % 0 mm 889 W/m2
12:37 28.9 °C 17.1 °C 1021.9 hPa ESE 4.8 km/h 11.3 km/h 49 % 0 mm 904 W/m2
12:42 29 °C 16.9 °C 1021.9 hPa South 6.4 km/h 14.5 km/h 48 % 0 mm 914 W/m2
12:47 29.1 °C 16.6 °C 1021.9 hPa South 6.4 km/h 14.5 km/h 47 % 0 mm 933 W/m2
12:52 29 °C 16.6 °C 1021.9 hPa South 6.4 km/h 12.9 km/h 47 % 0 mm 944 W/m2
12:57 29 °C 16.6 °C 1021.9 hPa South 6.4 km/h 9.7 km/h 47 % 0 mm 933 W/m2
13:02 29.2 °C 16.7 °C 1021.9 hPa SSW 6.4 km/h 14.5 km/h 47 % 0 mm 947 W/m2
13:07 29.4 °C 15.9 °C 1021.6 hPa WSW 8 km/h 14.5 km/h 44 % 0 mm 190 W/m2
13:12 29.3 °C 15.8 °C 1021.6 hPa West 4.8 km/h 14.5 km/h 44 % 0 mm 287 W/m2
13:17 29.3 °C 15.8 °C 1021.6 hPa West 3.2 km/h 11.3 km/h 44 % 0 mm 1055 W/m2
13:22 29.4 °C 15.9 °C 1021.6 hPa West 4.8 km/h 12.9 km/h 44 % 0 mm 199 W/m2
13:27 29.2 °C 15.7 °C 1021.6 hPa WNW 4.8 km/h 12.9 km/h 44 % 0 mm 216 W/m2
13:32 29.3 °C 15.8 °C 1021.6 hPa NW 6.4 km/h 12.9 km/h 44 % 0 mm 1021 W/m2
13:37 29.4 °C 15.9 °C 1021.6 hPa West 8 km/h 17.7 km/h 44 % 0 mm 283 W/m2
13:42 29.4 °C 15.5 °C 1021.6 hPa West 8 km/h 17.7 km/h 43 % 0 mm 988 W/m2
13:47 29.5 °C 15.6 °C 1021.2 hPa West 8 km/h 16.1 km/h 43 % 0 mm 988 W/m2
13:52 29.9 °C 16.3 °C 1021.6 hPa West 9.7 km/h 19.3 km/h 44 % 0 mm 969 W/m2
13:57 30.3 °C 16.3 °C 1021.2 hPa West 11.3 km/h 22.5 km/h 43 % 0 mm 949 W/m2
14:02 30.4 °C 16.1 °C 1021.2 hPa West 9.7 km/h 22.5 km/h 42 % 0 mm 970 W/m2
14:07 30.2 °C 15.9 °C 1021.2 hPa West 11.3 km/h 22.5 km/h 42 % 0 mm 977 W/m2
14:12 30.3 °C 15.9 °C 1021.2 hPa WNW 12.9 km/h 19.3 km/h 42 % 0 mm 969 W/m2
14:17 30.5 °C 15.8 °C 1021.2 hPa WNW 11.3 km/h 22.5 km/h 41 % 0 mm 997 W/m2
14:22 30.6 °C 15.8 °C 1021.2 hPa West 12.9 km/h 22.5 km/h 41 % 0 mm 940 W/m2
14:27 30.7 °C 15.9 °C 1021.2 hPa West 12.9 km/h 20.9 km/h 41 % 0 mm 963 W/m2
14:32 30.3 °C 15.6 °C 1021.2 hPa West 11.3 km/h 17.7 km/h 41 % 0 mm 886 W/m2
14:37 29.9 °C 15.2 °C 1021.2 hPa West 12.9 km/h 20.9 km/h 41 % 0 mm 141 W/m2
14:42 29.4 °C 15.5 °C 1021.2 hPa West 12.9 km/h 20.9 km/h 43 % 0 mm 227 W/m2
14:47 29.2 °C 15.3 °C 1021.2 hPa WSW 11.3 km/h 19.3 km/h 43 % 0 mm 359 W/m2
14:52 29.3 °C 15.4 °C 1021.2 hPa West 12.9 km/h 20.9 km/h 43 % 0 mm 928 W/m2
14:57 29.4 °C 15.5 °C 1021.2 hPa West 11.3 km/h 20.9 km/h 43 % 0 mm 432 W/m2
15:02 29.6 °C 14.9 °C 1021.2 hPa West 12.9 km/h 22.5 km/h 41 % 0 mm 121 W/m2
15:07 29.7 °C 15.4 °C 1021.2 hPa WNW 11.3 km/h 22.5 km/h 42 % 0 mm 904 W/m2
15:12 29.8 °C 15.1 °C 1021.2 hPa WNW 9.7 km/h 20.9 km/h 41 % 0 mm 884 W/m2
15:17 30 °C 14.9 °C 1021.2 hPa WNW 11.3 km/h 20.9 km/h 40 % 0 mm 867 W/m2
15:22 30.2 °C 14.7 °C 1021.2 hPa WNW 12.9 km/h 20.9 km/h 39 % 0 mm 861 W/m2
15:27 30.4 °C 15.3 °C 1021.2 hPa WNW 12.9 km/h 22.5 km/h 40 % 0 mm 849 W/m2
15:32 30.5 °C 15 °C 1021.2 hPa WNW 12.9 km/h 22.5 km/h 39 % 0 mm 812 W/m2
15:33 30.6 °C 14.7 °C 1021.2 hPa WNW 12.9 km/h 22.5 km/h 38 % 0 mm 838 W/m2
15:38 30.7 °C 15.2 °C 1021.2 hPa NW 11.3 km/h 19.3 km/h 39 % 0 mm 831 W/m2
15:44 30.9 °C 15.3 °C 1021.2 hPa NW 11.3 km/h 22.5 km/h 39 % 0 mm 844 W/m2
15:49 31.1 °C 15.1 °C 1020.9 hPa WNW 11.3 km/h 22.5 km/h 38 % 0 mm 849 W/m2
15:54 30.8 °C 15.2 °C 1020.9 hPa West 12.9 km/h 22.5 km/h 39 % 0 mm 853 W/m2
15:59 30.4 °C 15.3 °C 1020.9 hPa WSW 11.3 km/h 22.5 km/h 40 % 0 mm 158 W/m2
16:04 30.2 °C 15.1 °C 1021.2 hPa West 9.7 km/h 17.7 km/h 40 % 0 mm 788 W/m2
16:09 30.1 °C 15.4 °C 1020.9 hPa West 11.3 km/h 17.7 km/h 41 % 0 mm 765 W/m2
16:14 30.3 °C 14.8 °C 1020.9 hPa West 11.3 km/h 17.7 km/h 39 % 0 mm 759 W/m2
16:19 30.4 °C 14.9 °C 1021.2 hPa West 11.3 km/h 19.3 km/h 39 % 0 mm 768 W/m2
16:24 30.3 °C 15.2 °C 1020.9 hPa WSW 11.3 km/h 19.3 km/h 40 % 0 mm 582 W/m2
16:29 29.9 °C 15.2 °C 1020.9 hPa WSW 9.7 km/h 17.7 km/h 41 % 0 mm 722 W/m2
16:34 29.9 °C 14.8 °C 1020.9 hPa West 9.7 km/h 16.1 km/h 40 % 0 mm 721 W/m2
16:39 30.1 °C 15.4 °C 1020.9 hPa West 9.7 km/h 17.7 km/h 41 % 0 mm 684 W/m2
16:44 30.1 °C 15.4 °C 1020.9 hPa WSW 9.7 km/h 17.7 km/h 41 % 0 mm 661 W/m2
16:49 30.3 °C 15.2 °C 1020.9 hPa West 11.3 km/h 20.9 km/h 40 % 0 mm 638 W/m2
16:54 30.4 °C 14.9 °C 1020.9 hPa WNW 11.3 km/h 20.9 km/h 39 % 0 mm 670 W/m2
16:59 30.4 °C 14.9 °C 1020.9 hPa WNW 9.7 km/h 19.3 km/h 39 % 0 mm 181 W/m2
17:04 30.2 °C 15.5 °C 1020.9 hPa WNW 9.7 km/h 16.1 km/h 41 % 0 mm 687 W/m2
17:09 30.4 °C 15.3 °C 1020.9 hPa WNW 11.3 km/h 17.7 km/h 40 % 0 mm 679 W/m2
17:14 30.4 °C 15.3 °C 1020.9 hPa West 9.7 km/h 20.9 km/h 40 % 0 mm 206 W/m2
17:19 30.2 °C 15.1 °C 1020.9 hPa West 9.7 km/h 20.9 km/h 40 % 0 mm 640 W/m2
17:24 30.2 °C 15.1 °C 1020.9 hPa West 9.7 km/h 19.3 km/h 40 % 0 mm 585 W/m2
17:29 30.3 °C 15.2 °C 1020.9 hPa WNW 9.7 km/h 19.3 km/h 40 % 0 mm 536 W/m2
17:34 30.4 °C 15.3 °C 1020.9 hPa WNW 9.7 km/h 24.1 km/h 40 % 0 mm 487 W/m2
17:39 30.2 °C 15.1 °C 1020.9 hPa West 11.3 km/h 24.1 km/h 40 % 0 mm 457 W/m2
17:44 30.1 °C 15 °C 1020.9 hPa West 9.7 km/h 17.7 km/h 40 % 0 mm 380 W/m2
17:49 29.9 °C 14.8 °C 1020.9 hPa West 8 km/h 14.5 km/h 40 % 0 mm 466 W/m2
17:54 29.9 °C 14.8 °C 1020.9 hPa West 8 km/h 19.3 km/h 40 % 0 mm 439 W/m2
17:55 29.9 °C 14.8 °C 1020.9 hPa WNW 8 km/h 19.3 km/h 40 % 0 mm 438 W/m2
18:00 30.1 °C 15.4 °C 1020.9 hPa WNW 8 km/h 19.3 km/h 41 % 0 mm 450 W/m2
18:05 30.2 °C 15.1 °C 1020.9 hPa WNW 6.4 km/h 12.9 km/h 40 % 0 mm 427 W/m2
18:10 30.3 °C 15.2 °C 1020.9 hPa WNW 6.4 km/h 12.9 km/h 40 % 0 mm 401 W/m2
18:15 30.3 °C 15.2 °C 1020.9 hPa WNW 8 km/h 17.7 km/h 40 % 0 mm 397 W/m2
18:20 30.2 °C 14.7 °C 1020.9 hPa WNW 9.7 km/h 17.7 km/h 39 % 0 mm 387 W/m2
18:25 29.9 °C 14.4 °C 1020.5 hPa WNW 6.4 km/h 16.1 km/h 39 % 0 mm 345 W/m2
18:30 29.7 °C 15.1 °C 1020.5 hPa West 6.4 km/h 11.3 km/h 41 % 0 mm 336 W/m2
18:35 29.6 °C 14.9 °C 1020.5 hPa WNW 6.4 km/h 12.9 km/h 41 % 0 mm 323 W/m2
18:40 29.6 °C 14.9 °C 1020.5 hPa WNW 8 km/h 16.1 km/h 41 % 0 mm 304 W/m2
18:46 29.7 °C 15.1 °C 1020.5 hPa NW 8 km/h 16.1 km/h 41 % 0 mm 287 W/m2
18:50 29.7 °C 15.1 °C 1020.5 hPa WNW 6.4 km/h 12.9 km/h 41 % 0 mm 272 W/m2
18:56 29.5 °C 14.9 °C 1020.5 hPa WNW 6.4 km/h 12.9 km/h 41 % 0 mm 258 W/m2
19:01 29.6 °C 14.9 °C 1020.5 hPa WNW 4.8 km/h 11.3 km/h 41 % 0 mm 246 W/m2
19:06 29.6 °C 14.6 °C 1020.5 hPa NW 6.4 km/h 12.9 km/h 40 % 0 mm 239 W/m2
19:11 29.6 °C 14.6 °C 1020.5 hPa WNW 6.4 km/h 12.9 km/h 40 % 0 mm 227 W/m2
19:16 29.6 °C 14.9 °C 1020.5 hPa WNW 6.4 km/h 11.3 km/h 41 % 0 mm 216 W/m2
19:21 29.7 °C 15.1 °C 1020.5 hPa WNW 6.4 km/h 11.3 km/h 41 % 0 mm 207 W/m2
19:26 29.6 °C 14.9 °C 1020.5 hPa WNW 4.8 km/h 11.3 km/h 41 % 0 mm 193 W/m2
19:31 29.6 °C 15.3 °C 1020.2 hPa WNW 3.2 km/h 9.7 km/h 42 % 0 mm 183 W/m2
19:36 29.5 °C 15.2 °C 1020.5 hPa WNW 3.2 km/h 11.3 km/h 42 % 0 mm 172 W/m2
19:41 29.4 °C 15.5 °C 1020.5 hPa WNW 4.8 km/h 11.3 km/h 43 % 0 mm 162 W/m2
19:46 29.3 °C 15.4 °C 1020.5 hPa WNW 4.8 km/h 11.3 km/h 43 % 0 mm 151 W/m2
19:51 29.1 °C 15.6 °C 1020.5 hPa WNW 6.4 km/h 11.3 km/h 44 % 0 mm 146 W/m2
19:56 29 °C 15.2 °C 1020.5 hPa NW 4.8 km/h 9.7 km/h 43 % 0 mm 132 W/m2
20:01 28.9 °C 15.4 °C 1020.5 hPa NW 1.6 km/h 9.7 km/h 44 % 0 mm 116 W/m2
20:06 28.7 °C 15.6 °C 1020.2 hPa NW 3.2 km/h 9.7 km/h 45 % 0 mm 47 W/m2
20:11 28.4 °C 16 °C 1020.2 hPa NW 6.4 km/h 14.5 km/h 47 % 0 mm 44 W/m2
20:16 28.1 °C 16.4 °C 1020.2 hPa NW 6.4 km/h 14.5 km/h 49 % 0 mm 53 W/m2
20:21 27.8 °C 16.1 °C 1020.2 hPa NW 6.4 km/h 11.3 km/h 49 % 0 mm 30 W/m2
20:26 27.4 °C 16.1 °C 1020.2 hPa NW 8 km/h 14.5 km/h 50 % 0 mm 26 W/m2
20:31 27.1 °C 16.1 °C 1020.2 hPa NW 8 km/h 12.9 km/h 51 % 0 mm 25 W/m2
20:36 26.8 °C 16.1 °C 1020.5 hPa NW 6.4 km/h 16.1 km/h 52 % 0 mm 26 W/m2
20:41 26.5 °C 15.8 °C 1020.2 hPa NW 6.4 km/h 16.1 km/h 52 % 0 mm 23 W/m2
20:46 26.2 °C 15.9 °C 1020.5 hPa NW 6.4 km/h 12.9 km/h 53 % 0 mm 21 W/m2
20:47 26.2 °C 15.9 °C 1020.2 hPa NW 8 km/h 12.9 km/h 53 % 0 mm 21 W/m2
20:52 25.9 °C 15.9 °C 1020.5 hPa NW 8 km/h 12.9 km/h 54 % 0 mm 19 W/m2
20:57 25.7 °C 16 °C 1020.5 hPa NW 6.4 km/h 12.9 km/h 55 % 0 mm 18 W/m2
21:02 25.4 °C 16 °C 1020.5 hPa NW 8 km/h 12.9 km/h 56 % 0 mm 16 W/m2
21:07 25.2 °C 16.1 °C 1020.5 hPa NW 8 km/h 12.9 km/h 57 % 0 mm 14 W/m2
21:12 25 °C 15.9 °C 1020.5 hPa NW 6.4 km/h 11.3 km/h 57 % 0 mm 12 W/m2
21:17 24.9 °C 16.1 °C 1020.5 hPa NW 4.8 km/h 11.3 km/h 58 % 0 mm 11 W/m2
21:22 24.7 °C 16.2 °C 1020.5 hPa NW 3.2 km/h 9.7 km/h 59 % 0 mm 9 W/m2
21:27 24.6 °C 16.1 °C 1020.5 hPa NNW 3.2 km/h 9.7 km/h 59 % 0 mm 9 W/m2
21:32 24.4 °C 15.9 °C 1020.5 hPa NNW 3.2 km/h 8 km/h 59 % 0 mm 7 W/m2
21:37 24.3 °C 15.8 °C 1020.9 hPa North 3.2 km/h 8 km/h 59 % 0 mm 5 W/m2
21:42 24.2 °C 15.7 °C 1020.9 hPa NNE 1.6 km/h 8 km/h 59 % 0 mm 0 W/m2
21:47 24.1 °C 15.8 °C 1020.9 hPa North 1.6 km/h 8 km/h 60 % 0 mm 0 W/m2
21:52 23.9 °C 15.9 °C 1020.9 hPa NNW 1.6 km/h 8 km/h 61 % 0 mm 0 W/m2
21:57 23.8 °C 15.8 °C 1020.9 hPa NNW 1.6 km/h 8 km/h 61 % 0 mm 0 W/m2
22:02 23.7 °C 16 °C 1020.9 hPa Calm   1.6 km/h 62 % 0 mm 0 W/m2
22:07 23.4 °C 16.2 °C 1020.9 hPa Calm     64 % 0 mm 0 W/m2
22:12 23.2 °C 16 °C 1020.9 hPa Calm   6.4 km/h 64 % 0 mm 0 W/m2
22:17 22.9 °C 15.9 °C 1020.9 hPa Calm   6.4 km/h 65 % 0 mm 0 W/m2
22:22 22.7 °C 16 °C 1020.9 hPa Calm     66 % 0 mm 0 W/m2
22:27 22.4 °C 15.9 °C 1020.9 hPa Calm   1.6 km/h 67 % 0 mm 0 W/m2
22:29 22.4 °C 15.9 °C 1021.2 hPa Calm   1.6 km/h 67 % 0 mm 0 W/m2
22:34 22.2 °C 15.8 °C 1021.2 hPa Calm   9.7 km/h 67 % 0 mm 0 W/m2
22:39 22 °C 16.3 °C 1021.2 hPa Calm   9.7 km/h 70 % 0 mm 0 W/m2
22:44 21.6 °C 16.1 °C 1021.2 hPa Calm   6.4 km/h 71 % 0 mm 0 W/m2
22:49 21.3 °C 16.3 °C 1021.2 hPa Calm   6.4 km/h 73 % 0 mm 0 W/m2
22:54 21.1 °C 16.3 °C 1021.2 hPa Calm     74 % 0 mm 0 W/m2
22:59 20.8 °C 16.2 °C 1021.2 hPa Calm     75 % 0 mm 0 W/m2
23:04 20.5 °C 16.1 °C 1021.2 hPa Calm     76 % 0 mm 0 W/m2
23:09 20.3 °C 16.1 °C 1021.2 hPa Calm   3.2 km/h 77 % 0 mm 0 W/m2
23:14 20.1 °C 15.9 °C 1021.2 hPa NW 1.6 km/h 6.4 km/h 77 % 0 mm 0 W/m2
23:19 19.9 °C 15.9 °C 1021.2 hPa Calm   6.4 km/h 78 % 0 mm 0 W/m2
23:24 19.8 °C 15.8 °C 1021.2 hPa Calm     78 % 0 mm 0 W/m2
23:29 19.7 °C 15.8 °C 1021.2 hPa Calm     78 % 0 mm 0 W/m2
23:34 19.6 °C 15.8 °C 1021.2 hPa Calm   1.6 km/h 79 % 0 mm 0 W/m2
23:39 19.5 °C 15.8 °C 1021.2 hPa Calm   1.6 km/h 79 % 0 mm 0 W/m2
23:44 19.4 °C 15.7 °C 1021.2 hPa Calm   3.2 km/h 79 % 0 mm 0 W/m2
23:49 19.3 °C 15.6 °C 1021.2 hPa Calm   3.2 km/h 79 % 0 mm 0 W/m2
23:54 19.2 °C 15.4 °C 1021.2 hPa Calm     79 % 0 mm 0 W/m2
23:59 19.1 °C 15.6 °C 1021.2 hPa Calm     80 % 0 mm 0 W/m2
Delerius-Weather
Compliments of Weather Underground - 2.25 mb

Data updates at regular intervals.